sensor_id;sensor_type;location;lat;lon;timestamp;temperature;humidity
1700;DHT22;847;48.058;7.810;2023-07-09T00:02:12;23.10;86.40
1700;DHT22;847;48.058;7.810;2023-07-09T00:04:39;23.00;86.60
1700;DHT22;847;48.058;7.810;2023-07-09T00:07:14;23.00;86.40
1700;DHT22;847;48.058;7.810;2023-07-09T00:09:42;23.10;85.90
1700;DHT22;847;48.058;7.810;2023-07-09T00:12:12;23.10;86.10
1700;DHT22;847;48.058;7.810;2023-07-09T00:14:39;23.10;85.90
1700;DHT22;847;48.058;7.810;2023-07-09T00:17:09;23.10;85.80
1700;DHT22;847;48.058;7.810;2023-07-09T00:19:37;23.00;86.30
1700;DHT22;847;48.058;7.810;2023-07-09T00:22:13;23.00;86.50
1700;DHT22;847;48.058;7.810;2023-07-09T00:24:41;22.70;87.20
1700;DHT22;847;48.058;7.810;2023-07-09T00:27:09;22.60;87.70
1700;DHT22;847;48.058;7.810;2023-07-09T00:29:36;22.60;87.80
1700;DHT22;847;48.058;7.810;2023-07-09T00:32:04;22.70;87.40
1700;DHT22;847;48.058;7.810;2023-07-09T00:34:31;22.60;87.90
1700;DHT22;847;48.058;7.810;2023-07-09T00:36:59;22.60;87.40
1700;DHT22;847;48.058;7.810;2023-07-09T00:39:26;22.70;87.00
1700;DHT22;847;48.058;7.810;2023-07-09T00:41:53;22.80;86.60
1700;DHT22;847;48.058;7.810;2023-07-09T00:44:28;22.80;86.80
1700;DHT22;847;48.058;7.810;2023-07-09T00:47:22;22.60;87.10
1700;DHT22;847;48.058;7.810;2023-07-09T00:49:59;22.50;87.30
1700;DHT22;847;48.058;7.810;2023-07-09T00:52:32;22.50;87.60
1700;DHT22;847;48.058;7.810;2023-07-09T00:55:04;22.40;87.80
1700;DHT22;847;48.058;7.810;2023-07-09T00:57:32;22.30;88.20
1700;DHT22;847;48.058;7.810;2023-07-09T01:00:03;22.30;88.50
1700;DHT22;847;48.058;7.810;2023-07-09T01:02:33;22.20;88.90
1700;DHT22;847;48.058;7.810;2023-07-09T01:05:01;22.20;88.80
1700;DHT22;847;48.058;7.810;2023-07-09T01:07:30;22.30;88.40
1700;DHT22;847;48.058;7.810;2023-07-09T01:09:57;22.30;88.50
1700;DHT22;847;48.058;7.810;2023-07-09T01:12:24;22.20;88.90
1700;DHT22;847;48.058;7.810;2023-07-09T01:14:53;22.20;89.00
1700;DHT22;847;48.058;7.810;2023-07-09T01:17:25;22.10;89.00
1700;DHT22;847;48.058;7.810;2023-07-09T01:19:54;22.00;89.50
1700;DHT22;847;48.058;7.810;2023-07-09T01:22:23;21.90;89.80
1700;DHT22;847;48.058;7.810;2023-07-09T01:24:55;22.00;89.60
1700;DHT22;847;48.058;7.810;2023-07-09T01:27:29;22.10;89.40
1700;DHT22;847;48.058;7.810;2023-07-09T01:29:57;22.00;90.00
1700;DHT22;847;48.058;7.810;2023-07-09T01:32:25;21.90;90.50
1700;DHT22;847;48.058;7.810;2023-07-09T01:34:53;21.80;90.60
1700;DHT22;847;48.058;7.810;2023-07-09T01:37:24;21.80;90.60
1700;DHT22;847;48.058;7.810;2023-07-09T01:39:51;21.90;90.20
1700;DHT22;847;48.058;7.810;2023-07-09T01:42:21;21.80;90.00
1700;DHT22;847;48.058;7.810;2023-07-09T01:44:49;21.60;90.60
1700;DHT22;847;48.058;7.810;2023-07-09T01:47:16;21.60;91.40
1700;DHT22;847;48.058;7.810;2023-07-09T01:49:42;21.50;91.60
1700;DHT22;847;48.058;7.810;2023-07-09T01:52:13;21.50;92.00
1700;DHT22;847;48.058;7.810;2023-07-09T01:54:41;21.50;91.80
1700;DHT22;847;48.058;7.810;2023-07-09T01:57:17;21.60;91.10
1700;DHT22;847;48.058;7.810;2023-07-09T01:59:49;21.70;90.90
1700;DHT22;847;48.058;7.810;2023-07-09T02:02:16;21.40;91.50
1700;DHT22;847;48.058;7.810;2023-07-09T02:04:49;21.30;92.00
1700;DHT22;847;48.058;7.810;2023-07-09T02:07:16;21.40;92.00
1700;DHT22;847;48.058;7.810;2023-07-09T02:09:45;21.50;91.40
1700;DHT22;847;48.058;7.810;2023-07-09T02:12:13;21.50;91.50
1700;DHT22;847;48.058;7.810;2023-07-09T02:14:40;21.40;92.00
1700;DHT22;847;48.058;7.810;2023-07-09T02:17:08;21.20;92.50
1700;DHT22;847;48.058;7.810;2023-07-09T02:19:36;21.20;92.70
1700;DHT22;847;48.058;7.810;2023-07-09T02:22:03;21.20;93.00
1700;DHT22;847;48.058;7.810;2023-07-09T02:24:29;21.10;92.90
1700;DHT22;847;48.058;7.810;2023-07-09T02:26:59;21.20;92.70
1700;DHT22;847;48.058;7.810;2023-07-09T02:29:27;21.10;92.80
1700;DHT22;847;48.058;7.810;2023-07-09T02:31:56;21.20;92.70
1700;DHT22;847;48.058;7.810;2023-07-09T02:34:24;21.10;92.80
1700;DHT22;847;48.058;7.810;2023-07-09T02:36:52;21.10;93.10
1700;DHT22;847;48.058;7.810;2023-07-09T02:39:19;21.00;93.10
1700;DHT22;847;48.058;7.810;2023-07-09T02:41:46;21.00;93.30
1700;DHT22;847;48.058;7.810;2023-07-09T02:44:15;20.90;93.40
1700;DHT22;847;48.058;7.810;2023-07-09T02:46:42;21.00;93.00
1700;DHT22;847;48.058;7.810;2023-07-09T02:49:11;20.90;93.10
1700;DHT22;847;48.058;7.810;2023-07-09T02:51:38;20.80;93.90
1700;DHT22;847;48.058;7.810;2023-07-09T02:54:06;20.60;94.90
1700;DHT22;847;48.058;7.810;2023-07-09T02:56:33;20.50;94.80
1700;DHT22;847;48.058;7.810;2023-07-09T02:59:00;20.40;94.50
1700;DHT22;847;48.058;7.810;2023-07-09T03:01:28;20.30;95.30
1700;DHT22;847;48.058;7.810;2023-07-09T03:03:55;20.30;95.50
1700;DHT22;847;48.058;7.810;2023-07-09T03:06:23;20.40;95.20
1700;DHT22;847;48.058;7.810;2023-07-09T03:08:50;20.40;94.90
1700;DHT22;847;48.058;7.810;2023-07-09T03:11:18;20.30;95.20
1700;DHT22;847;48.058;7.810;2023-07-09T03:13:46;20.40;95.10
1700;DHT22;847;48.058;7.810;2023-07-09T03:16:13;20.30;95.40
1700;DHT22;847;48.058;7.810;2023-07-09T03:18:41;20.40;95.30
1700;DHT22;847;48.058;7.810;2023-07-09T03:21:08;20.40;95.20
1700;DHT22;847;48.058;7.810;2023-07-09T03:23:35;20.50;94.60
1700;DHT22;847;48.058;7.810;2023-07-09T03:26:02;20.50;94.40
1700;DHT22;847;48.058;7.810;2023-07-09T03:28:30;20.40;94.60
1700;DHT22;847;48.058;7.810;2023-07-09T03:30:57;20.40;94.30
1700;DHT22;847;48.058;7.810;2023-07-09T03:33:24;20.50;93.90
1700;DHT22;847;48.058;7.810;2023-07-09T03:35:53;20.40;94.00
1700;DHT22;847;48.058;7.810;2023-07-09T03:38:20;20.30;93.90
1700;DHT22;847;48.058;7.810;2023-07-09T03:40:50;20.40;93.70
1700;DHT22;847;48.058;7.810;2023-07-09T03:43:17;20.40;93.90
1700;DHT22;847;48.058;7.810;2023-07-09T03:45:44;20.30;94.50
1700;DHT22;847;48.058;7.810;2023-07-09T03:48:11;20.20;94.70
1700;DHT22;847;48.058;7.810;2023-07-09T03:50:38;20.20;94.60
1700;DHT22;847;48.058;7.810;2023-07-09T03:53:06;20.20;94.70
1700;DHT22;847;48.058;7.810;2023-07-09T03:55:33;20.20;94.70
1700;DHT22;847;48.058;7.810;2023-07-09T03:58:00;20.20;94.30
1700;DHT22;847;48.058;7.810;2023-07-09T04:00:28;20.20;94.40
1700;DHT22;847;48.058;7.810;2023-07-09T04:02:55;20.20;94.30
1700;DHT22;847;48.058;7.810;2023-07-09T04:05:22;20.10;95.00
1700;DHT22;847;48.058;7.810;2023-07-09T04:07:49;20.10;95.10
1700;DHT22;847;48.058;7.810;2023-07-09T04:10:17;19.90;95.20
1700;DHT22;847;48.058;7.810;2023-07-09T04:12:44;19.90;95.40
1700;DHT22;847;48.058;7.810;2023-07-09T04:15:11;19.90;95.80
1700;DHT22;847;48.058;7.810;2023-07-09T04:17:39;19.90;96.00
1700;DHT22;847;48.058;7.810;2023-07-09T04:20:07;19.90;96.20
1700;DHT22;847;48.058;7.810;2023-07-09T04:22:35;20.00;95.90
1700;DHT22;847;48.058;7.810;2023-07-09T04:25:03;20.00;95.90
1700;DHT22;847;48.058;7.810;2023-07-09T04:27:33;20.00;95.90
1700;DHT22;847;48.058;7.810;2023-07-09T04:29:59;19.90;96.30
1700;DHT22;847;48.058;7.810;2023-07-09T04:32:26;19.90;96.80
1700;DHT22;847;48.058;7.810;2023-07-09T04:34:53;20.10;96.30
1700;DHT22;847;48.058;7.810;2023-07-09T04:37:20;20.20;95.90
1700;DHT22;847;48.058;7.810;2023-07-09T04:39:46;20.20;95.90
1700;DHT22;847;48.058;7.810;2023-07-09T04:42:16;20.30;96.10
1700;DHT22;847;48.058;7.810;2023-07-09T04:44:45;20.30;96.30
1700;DHT22;847;48.058;7.810;2023-07-09T04:47:12;20.30;96.30
1700;DHT22;847;48.058;7.810;2023-07-09T04:49:39;20.30;95.90
1700;DHT22;847;48.058;7.810;2023-07-09T04:52:07;20.40;95.70
1700;DHT22;847;48.058;7.810;2023-07-09T04:54:37;20.40;95.00
1700;DHT22;847;48.058;7.810;2023-07-09T04:57:05;20.50;94.40
1700;DHT22;847;48.058;7.810;2023-07-09T04:59:31;20.50;94.60
1700;DHT22;847;48.058;7.810;2023-07-09T05:02:00;20.50;94.30
1700;DHT22;847;48.058;7.810;2023-07-09T05:04:26;20.60;94.50
1700;DHT22;847;48.058;7.810;2023-07-09T05:06:53;20.60;94.60
1700;DHT22;847;48.058;7.810;2023-07-09T05:09:20;20.70;94.50
1700;DHT22;847;48.058;7.810;2023-07-09T05:11:46;20.70;94.40
1700;DHT22;847;48.058;7.810;2023-07-09T05:14:13;20.80;94.20
1700;DHT22;847;48.058;7.810;2023-07-09T05:16:40;20.80;93.90
1700;DHT22;847;48.058;7.810;2023-07-09T05:19:08;20.90;93.70
1700;DHT22;847;48.058;7.810;2023-07-09T05:21:35;21.00;93.10
1700;DHT22;847;48.058;7.810;2023-07-09T05:24:02;21.10;93.00
1700;DHT22;847;48.058;7.810;2023-07-09T05:26:28;21.10;93.00
1700;DHT22;847;48.058;7.810;2023-07-09T05:28:55;21.20;93.30
1700;DHT22;847;48.058;7.810;2023-07-09T05:31:23;21.20;92.20
1700;DHT22;847;48.058;7.810;2023-07-09T05:33:49;21.20;90.10
1700;DHT22;847;48.058;7.810;2023-07-09T05:36:17;21.30;89.60
1700;DHT22;847;48.058;7.810;2023-07-09T05:38:45;21.30;89.90
1700;DHT22;847;48.058;7.810;2023-07-09T05:41:13;21.40;89.50
1700;DHT22;847;48.058;7.810;2023-07-09T05:43:42;21.40;89.60
1700;DHT22;847;48.058;7.810;2023-07-09T05:46:10;21.40;89.80
1700;DHT22;847;48.058;7.810;2023-07-09T05:48:37;21.50;89.90
1700;DHT22;847;48.058;7.810;2023-07-09T05:51:04;21.50;90.00
1700;DHT22;847;48.058;7.810;2023-07-09T05:53:32;21.50;89.90
1700;DHT22;847;48.058;7.810;2023-07-09T05:55:59;21.60;90.10
1700;DHT22;847;48.058;7.810;2023-07-09T05:58:26;21.60;90.40
1700;DHT22;847;48.058;7.810;2023-07-09T06:00:53;21.60;90.10
1700;DHT22;847;48.058;7.810;2023-07-09T06:03:23;21.70;89.40
1700;DHT22;847;48.058;7.810;2023-07-09T06:05:51;21.70;89.60
1700;DHT22;847;48.058;7.810;2023-07-09T06:08:18;21.70;89.50
1700;DHT22;847;48.058;7.810;2023-07-09T06:10:54;21.80;89.40
1700;DHT22;847;48.058;7.810;2023-07-09T06:13:21;21.80;89.00
1700;DHT22;847;48.058;7.810;2023-07-09T06:15:49;21.80;89.10
1700;DHT22;847;48.058;7.810;2023-07-09T06:18:16;21.80;89.20
1700;DHT22;847;48.058;7.810;2023-07-09T06:20:47;21.90;88.10
1700;DHT22;847;48.058;7.810;2023-07-09T06:23:14;22.00;87.50
1700;DHT22;847;48.058;7.810;2023-07-09T06:25:41;22.00;87.40
1700;DHT22;847;48.058;7.810;2023-07-09T06:28:10;22.10;87.00
1700;DHT22;847;48.058;7.810;2023-07-09T06:30:36;22.10;87.10
1700;DHT22;847;48.058;7.810;2023-07-09T06:33:03;22.20;86.20
1700;DHT22;847;48.058;7.810;2023-07-09T06:35:30;22.20;86.40
1700;DHT22;847;48.058;7.810;2023-07-09T06:37:57;22.20;86.30
1700;DHT22;847;48.058;7.810;2023-07-09T06:40:24;22.30;86.90
1700;DHT22;847;48.058;7.810;2023-07-09T06:42:51;22.40;86.40
1700;DHT22;847;48.058;7.810;2023-07-09T06:45:19;22.40;86.80
1700;DHT22;847;48.058;7.810;2023-07-09T06:47:46;22.50;86.40
1700;DHT22;847;48.058;7.810;2023-07-09T06:50:15;22.60;86.30
1700;DHT22;847;48.058;7.810;2023-07-09T06:52:42;22.70;85.00
1700;DHT22;847;48.058;7.810;2023-07-09T06:55:09;22.80;85.00
1700;DHT22;847;48.058;7.810;2023-07-09T06:57:36;22.90;84.40
1700;DHT22;847;48.058;7.810;2023-07-09T07:00:03;23.00;84.10
1700;DHT22;847;48.058;7.810;2023-07-09T07:02:32;23.10;83.70
1700;DHT22;847;48.058;7.810;2023-07-09T07:04:59;23.20;83.30
1700;DHT22;847;48.058;7.810;2023-07-09T07:07:25;23.20;82.80
1700;DHT22;847;48.058;7.810;2023-07-09T07:09:52;23.30;82.70
1700;DHT22;847;48.058;7.810;2023-07-09T07:12:26;23.30;82.30
1700;DHT22;847;48.058;7.810;2023-07-09T07:14:53;23.30;82.00
1700;DHT22;847;48.058;7.810;2023-07-09T07:17:20;23.30;82.40
1700;DHT22;847;48.058;7.810;2023-07-09T07:19:50;23.30;82.50
1700;DHT22;847;48.058;7.810;2023-07-09T07:22:17;23.40;82.60
1700;DHT22;847;48.058;7.810;2023-07-09T07:24:44;23.60;82.30
1700;DHT22;847;48.058;7.810;2023-07-09T07:27:10;23.60;81.60
1700;DHT22;847;48.058;7.810;2023-07-09T07:29:37;23.70;82.00
1700;DHT22;847;48.058;7.810;2023-07-09T07:32:05;23.80;81.50
1700;DHT22;847;48.058;7.810;2023-07-09T07:34:32;23.90;80.70
1700;DHT22;847;48.058;7.810;2023-07-09T07:37:00;23.90;80.20
1700;DHT22;847;48.058;7.810;2023-07-09T07:39:26;24.00;80.70
1700;DHT22;847;48.058;7.810;2023-07-09T07:41:54;24.20;79.30
1700;DHT22;847;48.058;7.810;2023-07-09T07:44:21;24.20;78.90
1700;DHT22;847;48.058;7.810;2023-07-09T07:46:48;24.30;79.50
1700;DHT22;847;48.058;7.810;2023-07-09T07:49:15;24.40;79.00
1700;DHT22;847;48.058;7.810;2023-07-09T07:51:41;24.40;78.70
1700;DHT22;847;48.058;7.810;2023-07-09T07:54:11;24.60;77.80
1700;DHT22;847;48.058;7.810;2023-07-09T07:56:38;24.80;78.10
1700;DHT22;847;48.058;7.810;2023-07-09T07:59:05;24.80;77.40
1700;DHT22;847;48.058;7.810;2023-07-09T08:01:32;24.90;76.70
1700;DHT22;847;48.058;7.810;2023-07-09T08:04:00;25.10;76.50
1700;DHT22;847;48.058;7.810;2023-07-09T08:06:27;25.20;76.30
1700;DHT22;847;48.058;7.810;2023-07-09T08:08:54;25.20;76.50
1700;DHT22;847;48.058;7.810;2023-07-09T08:11:22;25.20;77.90
1700;DHT22;847;48.058;7.810;2023-07-09T08:13:49;25.30;77.10
1700;DHT22;847;48.058;7.810;2023-07-09T08:16:17;25.60;75.90
1700;DHT22;847;48.058;7.810;2023-07-09T08:18:44;25.70;75.20
1700;DHT22;847;48.058;7.810;2023-07-09T08:21:11;25.80;77.10
1700;DHT22;847;48.058;7.810;2023-07-09T08:23:39;25.90;76.40
1700;DHT22;847;48.058;7.810;2023-07-09T08:26:06;26.10;76.50
1700;DHT22;847;48.058;7.810;2023-07-09T08:28:34;26.10;76.50
1700;DHT22;847;48.058;7.810;2023-07-09T08:31:01;26.00;76.30
1700;DHT22;847;48.058;7.810;2023-07-09T08:33:28;26.00;75.70
1700;DHT22;847;48.058;7.810;2023-07-09T08:35:55;26.00;75.70
1700;DHT22;847;48.058;7.810;2023-07-09T08:38:23;26.20;74.70
1700;DHT22;847;48.058;7.810;2023-07-09T08:40:54;26.10;74.70
1700;DHT22;847;48.058;7.810;2023-07-09T08:43:31;26.10;75.60
1700;DHT22;847;48.058;7.810;2023-07-09T08:46:03;26.10;73.50
1700;DHT22;847;48.058;7.810;2023-07-09T08:48:32;26.20;74.30
1700;DHT22;847;48.058;7.810;2023-07-09T08:51:04;26.20;76.00
1700;DHT22;847;48.058;7.810;2023-07-09T08:53:35;26.30;75.90
1700;DHT22;847;48.058;7.810;2023-07-09T08:56:03;26.30;74.60
1700;DHT22;847;48.058;7.810;2023-07-09T08:58:32;26.40;74.00
1700;DHT22;847;48.058;7.810;2023-07-09T09:01:02;26.40;73.20
1700;DHT22;847;48.058;7.810;2023-07-09T09:03:35;26.40;73.90
1700;DHT22;847;48.058;7.810;2023-07-09T09:06:11;26.40;75.40
1700;DHT22;847;48.058;7.810;2023-07-09T09:08:40;26.40;74.60
1700;DHT22;847;48.058;7.810;2023-07-09T09:11:15;26.50;73.90
1700;DHT22;847;48.058;7.810;2023-07-09T09:13:46;26.70;73.40
1700;DHT22;847;48.058;7.810;2023-07-09T09:16:21;26.70;71.90
1700;DHT22;847;48.058;7.810;2023-07-09T09:18:50;26.90;71.30
1700;DHT22;847;48.058;7.810;2023-07-09T09:21:21;26.80;72.70
1700;DHT22;847;48.058;7.810;2023-07-09T09:23:51;26.90;72.20
1700;DHT22;847;48.058;7.810;2023-07-09T09:26:23;26.90;72.30
1700;DHT22;847;48.058;7.810;2023-07-09T09:28:51;27.00;70.90
1700;DHT22;847;48.058;7.810;2023-07-09T09:31:20;27.20;71.50
1700;DHT22;847;48.058;7.810;2023-07-09T09:33:48;27.60;70.90
1700;DHT22;847;48.058;7.810;2023-07-09T09:36:19;27.90;69.50
1700;DHT22;847;48.058;7.810;2023-07-09T09:38:46;28.00;69.80
1700;DHT22;847;48.058;7.810;2023-07-09T09:41:17;28.20;69.30
1700;DHT22;847;48.058;7.810;2023-07-09T09:43:45;28.30;69.70
1700;DHT22;847;48.058;7.810;2023-07-09T09:46:18;28.50;67.20
1700;DHT22;847;48.058;7.810;2023-07-09T09:48:47;28.60;68.40
1700;DHT22;847;48.058;7.810;2023-07-09T09:51:15;28.70;67.80
1700;DHT22;847;48.058;7.810;2023-07-09T09:53:46;28.80;69.40
1700;DHT22;847;48.058;7.810;2023-07-09T09:56:16;28.80;69.00
1700;DHT22;847;48.058;7.810;2023-07-09T09:58:44;29.10;69.00
1700;DHT22;847;48.058;7.810;2023-07-09T10:01:16;29.20;68.60
1700;DHT22;847;48.058;7.810;2023-07-09T10:03:46;29.10;67.70
1700;DHT22;847;48.058;7.810;2023-07-09T10:06:18;29.10;68.40
1700;DHT22;847;48.058;7.810;2023-07-09T10:08:54;29.20;69.20
1700;DHT22;847;48.058;7.810;2023-07-09T10:11:31;29.30;67.00
1700;DHT22;847;48.058;7.810;2023-07-09T10:14:04;29.20;67.30
1700;DHT22;847;48.058;7.810;2023-07-09T10:16:40;29.20;67.60
1700;DHT22;847;48.058;7.810;2023-07-09T10:19:17;29.20;68.60
1700;DHT22;847;48.058;7.810;2023-07-09T10:21:51;29.30;68.40
1700;DHT22;847;48.058;7.810;2023-07-09T10:24:35;29.50;65.80
1700;DHT22;847;48.058;7.810;2023-07-09T10:27:10;29.50;64.70
1700;DHT22;847;48.058;7.810;2023-07-09T10:29:52;29.60;66.50
1700;DHT22;847;48.058;7.810;2023-07-09T10:32:34;29.70;66.50
1700;DHT22;847;48.058;7.810;2023-07-09T10:35:07;29.70;64.80
1700;DHT22;847;48.058;7.810;2023-07-09T10:38:09;29.80;65.90
1700;DHT22;847;48.058;7.810;2023-07-09T10:40:41;29.80;65.30
1700;DHT22;847;48.058;7.810;2023-07-09T10:43:15;30.00;65.50
1700;DHT22;847;48.058;7.810;2023-07-09T10:45:47;30.10;65.50
1700;DHT22;847;48.058;7.810;2023-07-09T10:48:17;30.30;64.50
1700;DHT22;847;48.058;7.810;2023-07-09T10:50:48;30.30;63.60
1700;DHT22;847;48.058;7.810;2023-07-09T10:53:28;30.30;63.70
1700;DHT22;847;48.058;7.810;2023-07-09T10:56:00;30.40;64.10
1700;DHT22;847;48.058;7.810;2023-07-09T10:58:33;30.30;63.80
1700;DHT22;847;48.058;7.810;2023-07-09T11:01:01;30.40;62.90
1700;DHT22;847;48.058;7.810;2023-07-09T11:03:38;30.50;62.50
1700;DHT22;847;48.058;7.810;2023-07-09T11:06:14;30.50;63.80
1700;DHT22;847;48.058;7.810;2023-07-09T11:08:44;30.80;62.40
1700;DHT22;847;48.058;7.810;2023-07-09T11:11:17;30.80;62.40
1700;DHT22;847;48.058;7.810;2023-07-09T11:13:51;30.90;61.30
1700;DHT22;847;48.058;7.810;2023-07-09T11:16:25;30.90;62.50
1700;DHT22;847;48.058;7.810;2023-07-09T11:18:56;30.90;62.70
1700;DHT22;847;48.058;7.810;2023-07-09T11:21:55;30.90;63.00
1700;DHT22;847;48.058;7.810;2023-07-09T11:24:32;30.90;64.60
1700;DHT22;847;48.058;7.810;2023-07-09T11:26:58;31.20;63.10
1700;DHT22;847;48.058;7.810;2023-07-09T11:29:25;31.30;62.90
1700;DHT22;847;48.058;7.810;2023-07-09T11:31:52;31.20;62.20
1700;DHT22;847;48.058;7.810;2023-07-09T11:34:20;31.30;62.80
1700;DHT22;847;48.058;7.810;2023-07-09T11:36:57;31.40;62.80
1700;DHT22;847;48.058;7.810;2023-07-09T11:39:29;31.50;64.10
1700;DHT22;847;48.058;7.810;2023-07-09T11:41:56;31.60;63.00
1700;DHT22;847;48.058;7.810;2023-07-09T11:44:26;31.70;62.00
1700;DHT22;847;48.058;7.810;2023-07-09T11:47:14;31.90;62.50
1700;DHT22;847;48.058;7.810;2023-07-09T11:49:49;31.80;62.70
1700;DHT22;847;48.058;7.810;2023-07-09T11:52:23;31.80;65.20
1700;DHT22;847;48.058;7.810;2023-07-09T11:54:52;31.70;62.90
1700;DHT22;847;48.058;7.810;2023-07-09T11:57:19;31.90;61.80
1700;DHT22;847;48.058;7.810;2023-07-09T11:59:46;32.00;61.50
1700;DHT22;847;48.058;7.810;2023-07-09T12:02:16;32.00;61.80
1700;DHT22;847;48.058;7.810;2023-07-09T12:04:44;31.90;61.00
1700;DHT22;847;48.058;7.810;2023-07-09T12:07:14;31.90;61.70
1700;DHT22;847;48.058;7.810;2023-07-09T12:09:46;31.90;62.20
1700;DHT22;847;48.058;7.810;2023-07-09T12:12:21;32.00;59.80
1700;DHT22;847;48.058;7.810;2023-07-09T12:14:49;32.10;61.80
1700;DHT22;847;48.058;7.810;2023-07-09T12:17:16;32.10;62.40
1700;DHT22;847;48.058;7.810;2023-07-09T12:19:43;32.00;65.60
1700;DHT22;847;48.058;7.810;2023-07-09T12:22:17;32.10;63.10
1700;DHT22;847;48.058;7.810;2023-07-09T12:24:46;32.20;62.60
1700;DHT22;847;48.058;7.810;2023-07-09T12:27:23;32.20;64.30
1700;DHT22;847;48.058;7.810;2023-07-09T12:29:53;32.40;63.60
1700;DHT22;847;48.058;7.810;2023-07-09T12:32:20;32.50;62.70
1700;DHT22;847;48.058;7.810;2023-07-09T12:34:50;32.50;63.30
1700;DHT22;847;48.058;7.810;2023-07-09T12:37:18;32.60;65.50
1700;DHT22;847;48.058;7.810;2023-07-09T12:39:47;32.70;63.60
1700;DHT22;847;48.058;7.810;2023-07-09T12:42:17;32.80;62.60
1700;DHT22;847;48.058;7.810;2023-07-09T12:44:46;32.70;62.80
1700;DHT22;847;48.058;7.810;2023-07-09T12:47:15;32.90;61.40
1700;DHT22;847;48.058;7.810;2023-07-09T12:49:44;32.90;63.50
1700;DHT22;847;48.058;7.810;2023-07-09T12:52:16;32.90;62.10
1700;DHT22;847;48.058;7.810;2023-07-09T12:54:52;32.80;61.00
1700;DHT22;847;48.058;7.810;2023-07-09T12:57:21;32.90;61.10
1700;DHT22;847;48.058;7.810;2023-07-09T12:59:50;32.90;61.60
1700;DHT22;847;48.058;7.810;2023-07-09T13:02:19;32.90;62.00
1700;DHT22;847;48.058;7.810;2023-07-09T13:04:47;32.90;60.70
1700;DHT22;847;48.058;7.810;2023-07-09T13:07:36;32.90;61.50
1700;DHT22;847;48.058;7.810;2023-07-09T13:10:14;32.90;62.60
1700;DHT22;847;48.058;7.810;2023-07-09T13:12:45;33.00;63.20
1700;DHT22;847;48.058;7.810;2023-07-09T13:15:40;32.80;60.70
1700;DHT22;847;48.058;7.810;2023-07-09T13:18:10;32.80;61.00
1700;DHT22;847;48.058;7.810;2023-07-09T13:20:39;32.90;61.70
1700;DHT22;847;48.058;7.810;2023-07-09T13:23:09;33.00;62.50
1700;DHT22;847;48.058;7.810;2023-07-09T13:25:38;33.10;61.30
1700;DHT22;847;48.058;7.810;2023-07-09T13:28:10;33.10;62.60
1700;DHT22;847;48.058;7.810;2023-07-09T13:30:39;33.10;62.70
1700;DHT22;847;48.058;7.810;2023-07-09T13:33:08;33.20;61.10
1700;DHT22;847;48.058;7.810;2023-07-09T13:35:36;33.20;60.20
1700;DHT22;847;48.058;7.810;2023-07-09T13:38:03;33.20;61.30
1700;DHT22;847;48.058;7.810;2023-07-09T13:40:31;33.20;61.80
1700;DHT22;847;48.058;7.810;2023-07-09T13:42:57;33.20;60.90
1700;DHT22;847;48.058;7.810;2023-07-09T13:45:25;33.20;60.90
1700;DHT22;847;48.058;7.810;2023-07-09T13:47:53;33.30;60.10
1700;DHT22;847;48.058;7.810;2023-07-09T13:50:20;33.40;61.10
1700;DHT22;847;48.058;7.810;2023-07-09T13:52:47;33.40;60.90
1700;DHT22;847;48.058;7.810;2023-07-09T13:55:17;33.30;60.40
1700;DHT22;847;48.058;7.810;2023-07-09T13:57:45;33.40;61.20
1700;DHT22;847;48.058;7.810;2023-07-09T14:00:13;33.50;62.90
1700;DHT22;847;48.058;7.810;2023-07-09T14:02:40;33.50;60.60
1700;DHT22;847;48.058;7.810;2023-07-09T14:05:10;33.60;60.80
1700;DHT22;847;48.058;7.810;2023-07-09T14:07:39;33.70;62.40
1700;DHT22;847;48.058;7.810;2023-07-09T14:10:11;33.70;61.90
1700;DHT22;847;48.058;7.810;2023-07-09T14:12:41;33.80;61.80
1700;DHT22;847;48.058;7.810;2023-07-09T14:15:13;33.80;60.40
1700;DHT22;847;48.058;7.810;2023-07-09T14:17:40;33.90;60.30
1700;DHT22;847;48.058;7.810;2023-07-09T14:20:11;33.90;60.10
1700;DHT22;847;48.058;7.810;2023-07-09T14:22:39;34.00;59.70
1700;DHT22;847;48.058;7.810;2023-07-09T14:25:15;33.80;58.50
1700;DHT22;847;48.058;7.810;2023-07-09T14:27:42;33.80;60.60
1700;DHT22;847;48.058;7.810;2023-07-09T14:30:14;34.00;61.70
1700;DHT22;847;48.058;7.810;2023-07-09T14:32:41;34.00;60.50
1700;DHT22;847;48.058;7.810;2023-07-09T14:35:13;34.10;59.10
1700;DHT22;847;48.058;7.810;2023-07-09T14:37:41;34.10;57.80
1700;DHT22;847;48.058;7.810;2023-07-09T14:40:09;34.00;61.00
1700;DHT22;847;48.058;7.810;2023-07-09T14:42:36;34.10;58.50
1700;DHT22;847;48.058;7.810;2023-07-09T14:45:05;34.20;57.90
1700;DHT22;847;48.058;7.810;2023-07-09T14:47:33;34.30;58.90
1700;DHT22;847;48.058;7.810;2023-07-09T14:50:00;34.30;59.30
1700;DHT22;847;48.058;7.810;2023-07-09T14:52:30;34.40;58.80
1700;DHT22;847;48.058;7.810;2023-07-09T14:54:57;34.50;57.80
1700;DHT22;847;48.058;7.810;2023-07-09T14:57:25;34.50;58.70
1700;DHT22;847;48.058;7.810;2023-07-09T14:59:56;34.60;57.50
1700;DHT22;847;48.058;7.810;2023-07-09T15:02:34;34.60;57.30
1700;DHT22;847;48.058;7.810;2023-07-09T15:05:01;34.40;58.00
1700;DHT22;847;48.058;7.810;2023-07-09T15:07:29;34.40;57.10
1700;DHT22;847;48.058;7.810;2023-07-09T15:09:56;34.50;58.20
1700;DHT22;847;48.058;7.810;2023-07-09T15:12:26;34.50;57.00
1700;DHT22;847;48.058;7.810;2023-07-09T15:14:59;34.50;56.40
1700;DHT22;847;48.058;7.810;2023-07-09T15:17:27;34.60;58.00
1700;DHT22;847;48.058;7.810;2023-07-09T15:19:53;34.70;52.40
1700;DHT22;847;48.058;7.810;2023-07-09T15:22:28;34.70;54.10
1700;DHT22;847;48.058;7.810;2023-07-09T15:24:57;34.80;54.10
1700;DHT22;847;48.058;7.810;2023-07-09T15:27:23;34.80;53.90
1700;DHT22;847;48.058;7.810;2023-07-09T15:29:50;34.80;55.30
1700;DHT22;847;48.058;7.810;2023-07-09T15:32:17;34.90;55.30
1700;DHT22;847;48.058;7.810;2023-07-09T15:34:44;34.80;55.70
1700;DHT22;847;48.058;7.810;2023-07-09T15:37:12;34.70;55.20
1700;DHT22;847;48.058;7.810;2023-07-09T15:39:40;34.60;53.90
1700;DHT22;847;48.058;7.810;2023-07-09T15:42:12;34.50;52.90
1700;DHT22;847;48.058;7.810;2023-07-09T15:44:39;34.50;53.10
1700;DHT22;847;48.058;7.810;2023-07-09T15:47:15;34.40;54.50
1700;DHT22;847;48.058;7.810;2023-07-09T15:49:42;34.40;51.70
1700;DHT22;847;48.058;7.810;2023-07-09T15:52:10;34.40;53.20
1700;DHT22;847;48.058;7.810;2023-07-09T15:54:37;34.40;54.10
1700;DHT22;847;48.058;7.810;2023-07-09T15:57:04;34.40;53.00
1700;DHT22;847;48.058;7.810;2023-07-09T15:59:34;34.40;54.10
1700;DHT22;847;48.058;7.810;2023-07-09T16:02:08;34.40;53.30
1700;DHT22;847;48.058;7.810;2023-07-09T16:04:35;34.30;53.40
1700;DHT22;847;48.058;7.810;2023-07-09T16:07:02;34.30;54.10
1700;DHT22;847;48.058;7.810;2023-07-09T16:09:29;34.20;53.00
1700;DHT22;847;48.058;7.810;2023-07-09T16:11:56;34.20;53.90
1700;DHT22;847;48.058;7.810;2023-07-09T16:14:24;34.20;54.10
1700;DHT22;847;48.058;7.810;2023-07-09T16:16:55;34.20;54.10
1700;DHT22;847;48.058;7.810;2023-07-09T16:19:23;34.20;56.40
1700;DHT22;847;48.058;7.810;2023-07-09T16:21:53;34.20;54.90
1700;DHT22;847;48.058;7.810;2023-07-09T16:24:23;34.10;55.20
1700;DHT22;847;48.058;7.810;2023-07-09T16:26:51;34.20;56.70
1700;DHT22;847;48.058;7.810;2023-07-09T16:29:21;34.30;56.90
1700;DHT22;847;48.058;7.810;2023-07-09T16:31:48;34.30;55.40